Time;durP1;ratioP1;P1;durP2;ratioP2;P2;SDS_P1;SDS_P2;PMS_P1;PMS_P2;Temp;Humidity;BMP_temperature;BMP_pressure;BME280_temperature;BME280_humidity;BME280_pressure;Samples;Min_cycle;Max_cycle;Signal;HPM_P1;HPM_P2
2023/09/22 00:01:00;;;;;;;4.75;1.65;;;;;;;25.18;54.32;100090.53;5027211;28;20072;-63
2023/09/22 00:03:28;;;;;;;5.90;2.10;;;;;;;25.19;54.25;100097.63;5025022;28;20052;-63
2023/09/22 00:05:57;;;;;;;4.20;1.42;;;;;;;25.20;54.40;100103.88;5023796;28;20053;-63
2023/09/22 00:08:24;;;;;;;4.75;2.05;;;;;;;25.19;54.29;100094.06;5028002;28;20056;-62
2023/09/22 00:10:53;;;;;;;4.75;2.22;;;;;;;25.19;54.37;100091.34;5027214;28;20041;-63
2023/09/22 00:13:21;;;;;;;4.25;1.92;;;;;;;25.20;54.35;100093.91;5024392;28;20080;-63
2023/09/22 00:15:48;;;;;;;3.05;1.83;;;;;;;25.20;54.24;100098.44;5023951;28;20057;-63
2023/09/22 00:18:17;;;;;;;3.75;1.80;;;;;;;25.20;54.36;100093.03;5027321;28;20041;-60
2023/09/22 00:20:45;;;;;;;3.88;1.77;;;;;;;25.20;54.16;100095.75;5027367;28;20049;-60
2023/09/22 00:23:15;;;;;;;8.25;1.77;;;;;;;25.20;54.38;100090.31;5024210;28;20058;-60
2023/09/22 00:25:42;;;;;;;3.67;1.75;;;;;;;25.20;54.37;100096.63;5024538;28;20050;-60
2023/09/22 00:28:13;;;;;;;3.70;1.70;;;;;;;25.20;54.55;100095.75;5027265;28;20046;-60
2023/09/22 00:30:42;;;;;;;2.80;1.67;;;;;;;25.20;54.37;100093.03;5033303;28;20402;-63
2023/09/22 00:33:10;;;;;;;6.38;2.22;;;;;;;25.20;54.45;100095.75;5027542;28;20053;-63
2023/09/22 00:35:38;;;;;;;3.90;1.88;;;;;;;25.19;54.63;100094.91;5031442;28;20049;-63
2023/09/22 00:38:06;;;;;;;4.60;1.95;;;;;;;25.19;54.67;100089.50;5027051;28;20062;-63
2023/09/22 00:40:34;;;;;;;3.45;1.83;;;;;;;25.19;54.69;100088.66;5029348;28;20049;-60
2023/09/22 00:43:10;;;;;;;4.80;1.77;;;;;;;25.20;54.55;100074.94;5035960;28;20054;-60
2023/09/22 00:45:42;;;;;;;6.28;1.90;;;;;;;25.21;54.52;100073.06;5030701;28;20053;-60
2023/09/22 00:48:22;;;;;;;3.25;2.00;;;;;;;25.20;54.55;100061.41;5026402;28;20046;-63
2023/09/22 00:50:53;;;;;;;5.65;1.70;;;;;;;25.20;54.42;100061.41;5025061;28;20046;-60
2023/09/22 00:53:20;;;;;;;4.60;2.20;;;;;;;25.20;54.55;100065.94;5028865;28;20054;-60
2023/09/22 00:55:50;;;;;;;4.13;1.70;;;;;;;25.19;54.32;100056.97;5031064;28;20353;-60
2023/09/22 00:58:22;;;;;;;5.28;1.63;;;;;;;25.19;54.45;100048.84;5030918;28;20049;-60
2023/09/22 01:00:52;;;;;;;3.45;1.83;;;;;;;25.20;54.33;100049.69;5031803;28;20053;-60
2023/09/22 01:03:19;;;;;;;2.55;1.48;;;;;;;25.19;54.16;100058.84;5034918;28;20049;-60
2023/09/22 01:05:47;;;;;;;3.40;1.92;;;;;;;25.19;54.41;100064.28;5051736;28;20053;-60
2023/09/22 01:08:15;;;;;;;5.43;1.85;;;;;;;25.19;54.28;100048.84;5037076;28;20411;-62
2023/09/22 01:10:46;;;;;;;4.18;2.00;;;;;;;25.19;54.41;100053.44;5036709;28;20523;-60
2023/09/22 01:13:14;;;;;;;4.22;1.90;;;;;;;25.19;54.42;100054.28;5035671;28;20057;-60
2023/09/22 01:15:42;;;;;;;4.18;1.90;;;;;;;25.19;54.33;100058.84;5036861;28;20049;-60
2023/09/22 01:18:13;;;;;;;3.55;2.08;;;;;;;25.19;54.15;100050.72;5035586;28;20053;-62
2023/09/22 01:20:43;;;;;;;5.10;1.98;;;;;;;25.19;54.51;100051.56;5033993;28;20041;-60
2023/09/22 01:23:12;;;;;;;4.28;2.15;;;;;;;25.19;54.58;100048.03;5030306;28;20045;-60
2023/09/22 01:25:44;;;;;;;3.95;1.58;;;;;;;25.19;54.68;100048.84;5030349;28;20049;-60
2023/09/22 01:28:12;;;;;;;3.95;1.75;;;;;;;25.19;54.54;100056.16;5025008;28;20045;-61
2023/09/22 01:30:39;;;;;;;4.32;2.33;;;;;;;25.18;54.56;100044.47;5025818;28;20061;-63
2023/09/22 01:33:08;;;;;;;3.45;1.80;;;;;;;25.19;54.54;100058.84;5028530;28;20054;-63
2023/09/22 01:35:37;;;;;;;4.18;2.33;;;;;;;25.18;54.69;100057.19;5044339;28;20049;-63
2023/09/22 01:38:18;;;;;;;5.82;2.40;;;;;;;25.17;54.34;100061.75;5025997;28;20058;-63
2023/09/22 01:40:46;;;;;;;3.90;1.95;;;;;;;25.17;54.56;100056.34;5028658;28;20487;-63
2023/09/22 01:43:14;;;;;;;4.30;1.65;;;;;;;25.17;54.47;100058.22;5028344;28;20054;-63
2023/09/22 01:45:41;;;;;;;4.90;2.17;;;;;;;25.16;54.68;100051.97;5027523;28;20053;-63
2023/09/22 01:48:10;;;;;;;3.33;1.55;;;;;;;25.19;54.67;100056.16;5026370;28;20049;-62
2023/09/22 01:50:40;;;;;;;3.63;1.83;;;;;;;25.17;54.52;100045.50;5016974;28;20037;-63
2023/09/22 01:53:10;;;;;;;5.25;1.60;;;;;;;25.17;54.55;100039.25;5028162;28;20060;-63
2023/09/22 01:55:40;;;;;;;4.05;2.50;;;;;;;25.16;54.53;100041.13;5025079;28;20401;-63
2023/09/22 01:58:08;;;;;;;4.40;2.15;;;;;;;25.18;54.47;100040.94;5025325;28;20049;-63
2023/09/22 02:00:37;;;;;;;4.63;1.48;;;;;;;25.16;54.41;100035.72;5029610;28;20056;-60
2023/09/22 02:03:08;;;;;;;3.95;2.10;;;;;;;25.17;54.62;100041.97;5030419;28;20484;-60
2023/09/22 02:05:36;;;;;;;3.60;1.90;;;;;;;25.15;54.34;100034.84;5020099;28;20061;-60
2023/09/22 02:08:04;;;;;;;2.90;1.67;;;;;;;25.15;54.40;100029.44;5025726;28;20061;-60
2023/09/22 02:10:32;;;;;;;4.70;2.00;;;;;;;25.15;54.34;100015.88;5027848;28;20056;-62
2023/09/22 02:13:01;;;;;;;3.60;1.95;;;;;;;25.15;54.44;100017.75;5028986;28;20045;-62
2023/09/22 02:15:29;;;;;;;5.45;1.88;;;;;;;25.15;54.48;100021.31;5024241;28;20054;-63
2023/09/22 02:17:57;;;;;;;4.28;1.95;;;;;;;25.15;54.60;100028.59;5026064;28;20416;-62
2023/09/22 02:20:24;;;;;;;3.20;1.60;;;;;;;25.15;54.86;100020.47;5029315;28;20483;-62
2023/09/22 02:22:56;;;;;;;3.50;1.70;;;;;;;25.17;54.53;100017.59;5027082;28;20491;-62
2023/09/22 02:25:24;;;;;;;2.85;2.00;;;;;;;25.15;54.58;100015.06;5025524;28;20050;-63
2023/09/22 02:27:53;;;;;;;3.50;1.83;;;;;;;25.15;54.84;100007.75;5028451;28;20046;-62
2023/09/22 02:30:21;;;;;;;6.15;2.13;;;;;;;25.15;54.80;100010.47;5029292;28;20510;-60
2023/09/22 02:32:50;;;;;;;3.83;2.03;;;;;;;25.15;54.81;100002.34;5027535;28;20056;-60
2023/09/22 02:35:19;;;;;;;3.95;1.98;;;;;;;25.15;54.65;100001.50;5039946;28;20060;-60
2023/09/22 02:37:47;;;;;;;3.65;1.70;;;;;;;25.14;55.03;100019.63;5028438;28;20413;-60
2023/09/22 02:40:14;;;;;;;4.00;1.80;;;;;;;25.13;54.69;100012.53;5028980;28;20053;-60
2023/09/22 02:42:44;;;;;;;4.70;2.00;;;;;;;25.14;54.75;100000.66;5026907;28;20060;-60
2023/09/22 02:45:12;;;;;;;3.40;1.70;;;;;;;25.13;54.64;99990.88;5023901;28;20072;-60
2023/09/22 02:47:41;;;;;;;4.07;1.77;;;;;;;25.14;54.84;100000.66;5016867;28;20045;-60
2023/09/22 02:50:11;;;;;;;6.10;2.05;;;;;;;25.15;54.75;99996.09;5028761;28;20049;-63
2023/09/22 02:52:39;;;;;;;2.78;1.88;;;;;;;25.14;54.90;99989.84;5024400;28;20054;-63
2023/09/22 02:55:09;;;;;;;3.42;1.85;;;;;;;25.14;54.82;99995.25;5025305;28;20045;-63
2023/09/22 02:57:36;;;;;;;4.53;1.73;;;;;;;25.13;54.79;99980.03;5028721;28;20049;-62
2023/09/22 03:00:11;;;;;;;4.15;1.95;;;;;;;25.15;54.74;99974.41;5026899;28;20053;-63
2023/09/22 03:02:39;;;;;;;4.05;1.63;;;;;;;25.13;54.90;99974.63;5023875;28;20046;-63
2023/09/22 03:05:08;;;;;;;4.22;2.17;;;;;;;25.13;54.71;99977.34;5026227;28;20052;-63
2023/09/22 03:07:37;;;;;;;4.22;1.67;;;;;;;25.14;55.02;99980.88;5026625;28;20064;-62
2023/09/22 03:10:06;;;;;;;3.20;1.90;;;;;;;25.13;54.75;99979.22;5025175;28;20054;-62
2023/09/22 03:12:34;;;;;;;4.25;2.10;;;;;;;25.12;54.81;99981.09;5025341;28;20381;-62
2023/09/22 03:15:04;;;;;;;4.88;2.15;;;;;;;25.13;55.05;99985.47;5025175;28;20050;-62
2023/09/22 03:17:32;;;;;;;4.05;2.10;;;;;;;25.13;55.00;99995.47;5030434;28;20049;-63
2023/09/22 03:20:00;;;;;;;3.97;2.00;;;;;;;25.13;55.01;99990.88;5041884;28;20484;-63
2023/09/22 03:22:27;;;;;;;2.90;1.60;;;;;;;25.13;55.22;99993.59;5024265;28;20045;-63
2023/09/22 03:24:55;;;;;;;3.53;1.73;;;;;;;25.13;55.20;99990.88;5027583;28;20046;-63
2023/09/22 03:27:23;;;;;;;4.40;2.03;;;;;;;25.13;55.00;99984.63;5026617;28;20064;-60
2023/09/22 03:29:51;;;;;;;4.38;1.92;;;;;;;25.12;55.04;99983.78;5025059;28;20060;-62
2023/09/22 03:32:18;;;;;;;3.70;1.95;;;;;;;25.13;55.04;99987.34;5023002;28;20065;-63
2023/09/22 03:34:47;;;;;;;3.38;1.77;;;;;;;25.13;55.17;99985.47;5027595;28;20068;-63
2023/09/22 03:37:15;;;;;;;3.03;1.70;;;;;;;25.13;55.06;99979.22;5027606;28;20057;-63
2023/09/22 03:39:42;;;;;;;3.80;1.88;;;;;;;25.13;55.21;99985.47;5024027;28;20064;-63
2023/09/22 03:42:13;;;;;;;3.33;1.70;;;;;;;25.13;55.27;99980.03;5006136;28;20046;-63
2023/09/22 03:44:40;;;;;;;4.25;2.00;;;;;;;25.13;55.18;99974.63;5013758;28;20050;-63
2023/09/22 03:47:08;;;;;;;4.03;1.88;;;;;;;25.13;55.24;99980.03;5026326;28;20054;-63
2023/09/22 03:49:35;;;;;;;5.57;2.10;;;;;;;25.13;55.22;99982.75;5040294;28;20053;-63
2023/09/22 03:52:04;;;;;;;5.75;2.17;;;;;;;25.13;54.90;99981.91;5023919;28;20050;-63
2023/09/22 03:54:31;;;;;;;5.70;1.88;;;;;;;25.13;55.12;99990.88;5029683;28;20060;-63
2023/09/22 03:57:00;;;;;;;5.20;1.90;;;;;;;25.13;55.23;99984.63;5026046;28;20057;-63
2023/09/22 03:59:28;;;;;;;3.30;1.77;;;;;;;25.13;55.37;99985.47;5022940;28;20049;-60
2023/09/22 04:01:55;;;;;;;4.50;2.25;;;;;;;25.13;55.11;99992.75;5023783;28;20381;-62
2023/09/22 04:04:23;;;;;;;4.25;2.10;;;;;;;25.12;55.24;99988.38;5027418;28;20056;-63
2023/09/22 04:06:50;;;;;;;3.80;2.15;;;;;;;25.12;55.29;99980.25;5025873;28;20049;-63
2023/09/22 04:09:18;;;;;;;6.32;1.70;;;;;;;25.11;55.03;99973.97;5023498;28;20056;-62
2023/09/22 04:11:45;;;;;;;4.57;1.90;;;;;;;25.12;55.19;99981.09;5023622;28;20042;-60
2023/09/22 04:14:13;;;;;;;3.75;1.90;;;;;;;25.12;55.14;99969.41;5026825;28;20064;-60
2023/09/22 04:16:40;;;;;;;3.10;1.85;;;;;;;25.10;55.19;99974.16;5027389;28;20403;-60
2023/09/22 04:19:09;;;;;;;4.35;2.30;;;;;;;25.12;55.30;99988.38;5024610;28;20399;-62
2023/09/22 04:21:42;;;;;;;5.10;2.10;;;;;;;25.11;55.15;99997.50;5023575;28;20046;-62
2023/09/22 04:24:11;;;;;;;3.72;2.25;;;;;;;25.11;55.15;100003.75;5027222;28;20056;-64
2023/09/22 04:26:44;;;;;;;3.78;1.90;;;;;;;25.11;55.43;99989.38;5026929;28;20050;-61
2023/09/22 04:29:12;;;;;;;4.25;2.17;;;;;;;25.11;55.24;99987.50;5018468;28;20056;-59
2023/09/22 04:31:39;;;;;;;4.25;1.85;;;;;;;25.11;55.32;99997.50;5031106;28;20084;-59
2023/09/22 04:34:07;;;;;;;4.55;1.98;;;;;;;25.11;55.31;99990.22;5026998;28;20045;-61
2023/09/22 04:36:34;;;;;;;3.80;2.70;;;;;;;25.11;55.39;100003.75;5026638;28;20396;-59
2023/09/22 04:39:02;;;;;;;3.83;2.38;;;;;;;25.11;55.44;100013.75;5023522;28;20056;-61
2023/09/22 04:41:30;;;;;;;3.83;2.20;;;;;;;25.11;55.51;100003.75;5024979;28;20078;-59
2023/09/22 04:43:57;;;;;;;3.95;2.17;;;;;;;25.10;55.49;100010.22;5027030;28;20377;-59
2023/09/22 04:46:24;;;;;;;4.80;2.20;;;;;;;25.10;55.28;100003.97;5026405;28;20041;-60
2023/09/22 04:48:54;;;;;;;3.60;2.38;;;;;;;25.10;55.30;100007.50;5023274;28;20082;-62
2023/09/22 04:51:22;;;;;;;5.18;2.25;;;;;;;25.10;55.22;100007.50;5025709;28;20050;-62
2023/09/22 04:53:50;;;;;;;3.92;2.38;;;;;;;25.10;55.53;99998.53;5026698;28;20045;-62
2023/09/22 04:56:17;;;;;;;4.47;2.08;;;;;;;25.10;55.18;100002.09;5025724;28;20492;-62
2023/09/22 04:58:46;;;;;;;5.20;2.20;;;;;;;25.10;55.18;99990.41;5023294;28;20053;-62
2023/09/22 05:01:15;;;;;;;3.33;1.60;;;;;;;25.09;55.22;99984.16;5025295;28;20057;-62
2023/09/22 05:03:43;;;;;;;4.43;2.45;;;;;;;25.10;55.25;99982.28;5026452;28;20050;-62
2023/09/22 05:06:10;;;;;;;3.40;2.38;;;;;;;25.10;55.43;99980.41;5025268;28;20052;-62
2023/09/22 05:08:38;;;;;;;3.50;2.35;;;;;;;25.08;55.45;99990.59;5023042;28;20053;-59
2023/09/22 05:11:06;;;;;;;3.80;2.40;;;;;;;25.09;55.34;99997.72;5025662;28;20056;-60
2023/09/22 05:13:35;;;;;;;5.00;2.97;;;;;;;25.10;55.22;99995.84;5026519;28;20049;-60
2023/09/22 05:16:13;;;;;;;3.90;1.90;;;;;;;25.10;55.43;100003.97;5024796;28;20050;-59
2023/09/22 05:18:40;;;;;;;4.22;2.30;;;;;;;25.09;55.45;100007.69;5023293;28;20050;-59
2023/09/22 05:21:09;;;;;;;5.32;2.20;;;;;;;25.10;55.39;100012.09;5026427;28;20038;-59
2023/09/22 05:23:37;;;;;;;5.85;2.40;;;;;;;25.09;55.45;100015.81;5026758;28;20045;-59
2023/09/22 05:26:06;;;;;;;4.15;2.13;;;;;;;25.09;55.39;100021.25;5026842;28;20050;-59
2023/09/22 05:28:35;;;;;;;3.95;2.53;;;;;;;25.09;55.72;100011.25;5027478;28;20424;-62
2023/09/22 05:31:04;;;;;;;4.53;2.38;;;;;;;25.08;55.66;100012.25;5030708;28;20073;-62
2023/09/22 05:33:35;;;;;;;3.13;2.03;;;;;;;25.08;55.49;100014.97;5030124;28;20506;-62
2023/09/22 05:36:03;;;;;;;6.90;2.75;;;;;;;25.08;55.71;100014.97;5020979;28;20057;-62
2023/09/22 05:38:31;;;;;;;4.18;2.58;;;;;;;25.08;55.53;100014.97;5028156;28;20049;-59
2023/09/22 05:40:58;;;;;;;5.40;2.88;;;;;;;25.09;55.71;100002.28;5030339;28;20407;-60
2023/09/22 05:43:26;;;;;;;4.95;2.97;;;;;;;25.08;55.55;99995.16;5029787;28;20045;-60
2023/09/22 05:45:57;;;;;;;3.65;2.80;;;;;;;25.09;55.87;99996.88;5021751;28;20054;-60
2023/09/22 05:48:24;;;;;;;4.97;3.13;;;;;;;25.08;55.73;99989.75;5027504;28;20050;-60
2023/09/22 05:50:59;;;;;;;4.07;2.58;;;;;;;25.07;55.69;99979.91;5029751;28;20052;-59
2023/09/22 05:53:28;;;;;;;4.80;2.80;;;;;;;25.07;55.95;99986.19;5027985;28;20052;-60
2023/09/22 05:56:07;;;;;;;4.13;2.58;;;;;;;25.08;55.89;99992.47;5026052;28;20061;-60
2023/09/22 05:58:35;;;;;;;4.80;2.78;;;;;;;25.08;55.77;99997.88;5019655;28;20045;-61
2023/09/22 06:01:10;;;;;;;5.93;3.17;;;;;;;25.08;56.04;99998.72;5029875;28;20045;-62
2023/09/22 06:03:39;;;;;;;6.47;3.42;;;;;;;25.08;56.14;99997.88;5020658;28;20519;-62
2023/09/22 06:06:09;;;;;;;5.53;2.95;;;;;;;25.08;55.82;99993.28;5028185;28;20053;-62
2023/09/22 06:08:37;;;;;;;4.50;3.15;;;;;;;25.07;55.96;99999.72;5029539;28;20046;-62
2023/09/22 06:11:05;;;;;;;5.85;3.72;;;;;;;25.08;56.13;100004.13;5028414;28;20053;-62
2023/09/22 06:13:33;;;;;;;5.05;3.03;;;;;;;25.07;55.94;100005.13;5025714;28;20051;-62
2023/09/22 06:16:01;;;;;;;4.18;3.00;;;;;;;25.07;56.22;100010.53;5028624;28;20404;-62
2023/09/22 06:18:29;;;;;;;4.90;2.90;;;;;;;25.08;56.25;100019.53;5029413;28;20045;-62
2023/09/22 06:20:59;;;;;;;6.40;3.38;;;;;;;25.08;56.05;100004.13;5029374;28;20053;-62
2023/09/22 06:23:27;;;;;;;5.80;3.00;;;;;;;25.08;56.09;100003.28;5035331;28;20057;-62
2023/09/22 06:26:01;;;;;;;5.45;3.13;;;;;;;25.07;56.22;99999.72;5028899;28;20045;-62
2023/09/22 06:28:32;;;;;;;5.65;2.95;;;;;;;25.08;56.39;99982.47;5035820;28;20054;-59
2023/09/22 06:31:01;;;;;;;5.20;3.22;;;;;;;25.09;56.55;99967.06;5025820;28;20396;-59
2023/09/22 06:33:32;;;;;;;6.78;3.28;;;;;;;25.08;56.47;99949.13;5026713;28;20046;-59
2023/09/22 06:36:03;;;;;;;6.00;4.10;;;;;;;25.06;56.47;99943.03;5029136;28;20053;-60
2023/09/22 06:38:35;;;;;;;6.65;3.80;;;;;;;25.07;56.31;99939.31;5028764;28;20049;-59
2023/09/22 06:41:04;;;;;;;5.13;3.58;;;;;;;25.06;56.39;99943.88;5025608;28;20050;-59
2023/09/22 06:43:33;;;;;;;6.97;3.50;;;;;;;25.05;56.66;99950.34;5027938;28;20064;-59
2023/09/22 06:46:03;;;;;;;6.32;3.80;;;;;;;25.05;56.80;99949.50;5029343;28;20045;-59
2023/09/22 06:48:32;;;;;;;6.93;4.38;;;;;;;25.05;56.69;99952.22;5027601;28;20054;-58
2023/09/22 06:51:00;;;;;;;6.32;4.10;;;;;;;25.02;56.70;99961.53;5024705;28;20053;-58
2023/09/22 06:53:29;;;;;;;6.43;3.78;;;;;;;25.00;56.83;99962.78;5015632;28;20053;-58
2023/09/22 06:56:08;;;;;;;7.50;4.25;;;;;;;24.99;56.81;99961.91;5028351;28;20042;-58
2023/09/22 06:58:40;;;;;;;10.65;4.35;;;;;;;24.97;56.87;99972.09;5024581;28;20049;-58
2023/09/22 07:01:12;;;;;;;6.90;4.07;;;;;;;24.95;56.94;99982.28;5023971;28;20524;-59
2023/09/22 07:03:41;;;;;;;5.80;4.43;;;;;;;24.92;57.01;99999.75;5028232;28;20042;-59
2023/09/22 07:06:14;;;;;;;7.07;4.22;;;;;;;24.91;57.32;99994.50;5026411;28;20052;-59
2023/09/22 07:08:45;;;;;;;6.07;4.65;;;;;;;24.89;57.40;99983.88;5024583;28;20057;-59
2023/09/22 07:11:15;;;;;;;6.30;4.47;;;;;;;24.88;57.48;99987.63;5016731;28;20046;-59
2023/09/22 07:13:42;;;;;;;7.97;4.13;;;;;;;24.88;57.47;99997.63;5027716;28;20049;-59
2023/09/22 07:16:10;;;;;;;6.05;4.22;;;;;;;24.87;57.57;100002.19;5024843;28;20057;-59
2023/09/22 07:18:39;;;;;;;10.30;4.93;;;;;;;24.85;57.68;100009.66;5024521;28;20385;-58
2023/09/22 07:21:11;;;;;;;7.47;4.82;;;;;;;24.82;57.85;100030.84;5027691;28;20041;-58
2023/09/22 07:23:38;;;;;;;6.78;4.75;;;;;;;24.81;57.81;100034.59;5027659;28;20050;-59
2023/09/22 07:26:09;;;;;;;9.98;5.68;;;;;;;24.79;57.80;100039.34;5023794;28;20606;-58
2023/09/22 07:28:37;;;;;;;7.32;5.13;;;;;;;24.79;57.93;100040.16;5025562;28;20535;-58
2023/09/22 07:31:16;;;;;;;7.45;4.55;;;;;;;24.79;57.99;100044.75;5027041;28;20057;-58
2023/09/22 07:33:43;;;;;;;6.47;4.65;;;;;;;24.79;58.30;100050.16;5025870;28;20045;-58
2023/09/22 07:36:12;;;;;;;9.50;5.05;;;;;;;24.78;58.06;100051.19;5023571;28;20046;-58
2023/09/22 07:38:40;;;;;;;7.43;4.68;;;;;;;24.79;58.11;100047.44;5027247;28;20132;-58
2023/09/22 07:41:07;;;;;;;7.25;4.25;;;;;;;24.78;58.22;100054.75;5027551;28;20050;-58
2023/09/22 07:43:35;;;;;;;7.68;4.82;;;;;;;24.79;58.21;100056.41;5025381;28;20434;-58
2023/09/22 07:46:06;;;;;;;6.57;5.20;;;;;;;24.79;58.46;100074.53;5023406;28;20054;-58
2023/09/22 07:48:36;;;;;;;6.32;4.88;;;;;;;24.77;58.61;100076.59;5014703;28;20487;-59
2023/09/22 07:51:04;;;;;;;5.90;4.90;;;;;;;24.74;58.87;100075.09;5027186;28;20054;-59
2023/09/22 07:53:33;;;;;;;9.73;7.03;;;;;;;24.69;59.12;100066.69;5033278;28;20411;-59
2023/09/22 07:56:00;;;;;;;10.27;6.85;;;;;;;24.58;59.57;100073.38;5032934;28;20457;-58
2023/09/22 07:58:29;;;;;;;10.40;6.90;;;;;;;24.55;59.85;100079.19;5033385;28;20045;-59
2023/09/22 08:00:58;;;;;;;8.85;7.32;;;;;;;24.50;59.92;100087.00;5027327;28;20514;-59
2023/09/22 08:03:27;;;;;;;14.43;7.22;;;;;;;24.45;60.05;100100.25;5023479;28;20045;-59
2023/09/22 08:05:55;;;;;;;10.05;7.38;;;;;;;24.40;60.42;100111.63;5024903;28;20057;-58
2023/09/22 08:08:24;;;;;;;8.73;6.65;;;;;;;24.38;60.57;100116.34;5030594;28;20057;-58
2023/09/22 08:10:53;;;;;;;9.82;6.57;;;;;;;24.36;60.54;100107.56;5023150;28;20060;-58
2023/09/22 08:13:21;;;;;;;9.68;7.20;;;;;;;24.35;60.80;100105.88;5017458;28;20061;-58
2023/09/22 08:15:49;;;;;;;11.50;7.22;;;;;;;24.35;60.91;100110.47;5024170;28;20052;-58
2023/09/22 08:18:17;;;;;;;11.68;7.63;;;;;;;24.34;61.24;100100.66;5026699;28;20045;-58
2023/09/22 08:20:45;;;;;;;10.80;7.43;;;;;;;24.33;61.47;100104.38;5026715;28;20053;-58
2023/09/22 08:23:12;;;;;;;10.90;7.13;;;;;;;24.34;61.53;100108.75;5014756;28;20054;-58
2023/09/22 08:25:43;;;;;;;9.27;6.93;;;;;;;24.36;61.57;100109.44;5024988;28;20046;-58
2023/09/22 08:28:14;;;;;;;13.13;7.97;;;;;;;24.36;61.38;100123.78;5026823;28;20052;-58
2023/09/22 08:30:42;;;;;;;10.38;6.95;;;;;;;24.35;61.63;100121.28;5025521;28;20488;-58
2023/09/22 08:33:10;;;;;;;9.38;6.82;;;;;;;24.35;61.86;100118.56;5022982;28;20045;-58
2023/09/22 08:35:39;;;;;;;11.38;7.47;;;;;;;24.35;61.54;100113.16;5026027;28;20057;-58
2023/09/22 08:38:24;;;;;;;9.90;6.50;;;;;;;24.37;61.46;100101.13;5026457;28;20061;-58
2023/09/22 08:40:52;;;;;;;8.90;6.43;;;;;;;24.38;61.48;100113.66;5020746;28;20052;-58
2023/09/22 08:43:20;;;;;;;11.65;6.38;;;;;;;24.40;61.70;100122.44;5026449;28;20042;-58
2023/09/22 08:45:48;;;;;;;8.35;6.28;;;;;;;24.41;61.43;100126.81;5026589;28;20467;-58
2023/09/22 08:48:17;;;;;;;10.75;6.80;;;;;;;24.42;61.56;100130.38;5026215;28;20049;-58
2023/09/22 08:50:45;;;;;;;10.48;7.68;;;;;;;24.43;61.58;100123.94;5022817;28;20053;-58
2023/09/22 08:53:13;;;;;;;12.57;7.63;;;;;;;24.44;61.72;100124.78;5024736;28;20046;-58
2023/09/22 08:55:40;;;;;;;10.25;7.60;;;;;;;24.43;61.96;100129.38;5026404;28;20042;-58
2023/09/22 08:58:07;;;;;;;11.23;8.57;;;;;;;24.42;62.05;100114.97;5026062;28;20060;-58
2023/09/22 09:00:36;;;;;;;12.65;7.63;;;;;;;24.38;62.00;100119.06;5025420;28;20449;-58
2023/09/22 09:03:09;;;;;;;9.70;7.35;;;;;;;24.37;62.17;100108.41;5028544;28;20042;-58
2023/09/22 09:05:39;;;;;;;15.38;7.68;;;;;;;24.35;62.39;100107.75;5030542;28;20050;-58
2023/09/22 09:08:18;;;;;;;11.45;8.13;;;;;;;24.35;62.30;100111.31;5029018;28;20072;-58
2023/09/22 09:10:50;;;;;;;11.45;8.05;;;;;;;24.36;62.57;100125.66;5027548;28;20042;-58
2023/09/22 09:13:20;;;;;;;9.40;7.57;;;;;;;24.37;62.52;100119.22;5030784;28;20048;-58
2023/09/22 09:15:49;;;;;;;8.13;7.03;;;;;;;24.40;62.16;100125.16;5030203;28;20053;-58
2023/09/22 09:18:19;;;;;;;9.55;6.28;;;;;;;24.43;61.91;100118.53;5026320;28;20052;-58
2023/09/22 09:20:49;;;;;;;10.05;7.32;;;;;;;24.45;62.11;100116.47;5028455;28;20064;-58
2023/09/22 09:23:21;;;;;;;7.90;6.45;;;;;;;24.48;62.37;100118.00;5029906;28;20050;-58
2023/09/22 09:25:54;;;;;;;8.23;5.63;;;;;;;24.49;61.94;100106.97;5020483;28;20065;-58
2023/09/22 09:28:23;;;;;;;9.63;6.75;;;;;;;24.52;62.00;100105.78;5026376;28;20279;-58
2023/09/22 09:30:54;;;;;;;12.10;7.00;;;;;;;24.53;62.11;100105.59;5021138;28;20057;-58
2023/09/22 09:33:24;;;;;;;7.55;5.80;;;;;;;24.55;62.03;100106.25;5026916;28;20045;-58
2023/09/22 09:35:54;;;;;;;11.13;6.82;;;;;;;24.54;62.16;100099.13;5026958;28;20046;-58
2023/09/22 09:38:29;;;;;;;9.48;6.47;;;;;;;24.56;62.29;100099.81;5027098;28;20065;-58
2023/09/22 09:40:58;;;;;;;9.40;6.50;;;;;;;24.57;62.33;100108.75;5024261;28;20050;-58
2023/09/22 09:43:26;;;;;;;9.60;6.78;;;;;;;24.56;62.40;100113.34;5027664;28;20050;-58
2023/09/22 09:45:57;;;;;;;10.10;6.15;;;;;;;24.58;62.35;100110.44;5031317;28;20065;-58
2023/09/22 09:48:26;;;;;;;11.85;7.03;;;;;;;24.59;62.10;100112.09;5029011;28;20483;-58
2023/09/22 09:50:58;;;;;;;10.00;6.45;;;;;;;24.59;62.16;100118.41;5029417;28;20053;-58
2023/09/22 09:53:31;;;;;;;8.00;6.35;;;;;;;24.59;62.26;100112.09;5033929;28;20045;-58
2023/09/22 09:56:03;;;;;;;7.63;6.10;;;;;;;24.60;62.24;100103.00;5035514;28;20053;-58
2023/09/22 09:58:34;;;;;;;7.18;5.68;;;;;;;24.60;62.18;100084.03;5035917;28;20045;-58
2023/09/22 10:01:07;;;;;;;9.02;6.10;;;;;;;24.62;62.07;100076.56;5029009;28;20056;-58
2023/09/22 10:03:39;;;;;;;9.35;6.55;;;;;;;24.61;62.34;100077.59;5024091;28;20054;-58
2023/09/22 10:06:12;;;;;;;;;;;;;;;24.59;62.56;100077.81;5029034;28;20048;-58
2023/09/22 10:08:40;;;;;;;8.40;6.38;;;;;;;24.62;62.38;100071.16;5029315;28;19932;-58
2023/09/22 10:11:11;;;;;;;11.10;6.53;;;;;;;24.60;62.37;100051.56;5026393;28;20045;-58
2023/09/22 10:13:38;;;;;;;9.05;6.22;;;;;;;24.60;62.43;100047.00;5031965;28;20057;-58
2023/09/22 10:16:08;;;;;;;8.45;6.03;;;;;;;24.60;62.56;100048.88;5029058;28;20492;-58
2023/09/22 10:18:45;;;;;;;8.73;5.95;;;;;;;24.62;62.73;100053.03;5029276;28;20049;-59
2023/09/22 10:21:30;;;;;;;10.18;6.63;;;;;;;24.61;62.59;100050.53;5019715;28;20508;-58
2023/09/22 10:24:17;;;;;;;10.10;7.38;;;;;;;24.60;63.10;100056.97;5017601;28;20037;-58
2023/09/22 10:26:54;;;;;;;9.77;6.93;;;;;;;24.60;63.04;100068.66;5027720;28;20041;-58
2023/09/22 10:29:36;;;;;;;7.95;5.80;;;;;;;24.62;62.99;100077.41;5025232;28;20073;-58
2023/09/22 10:34:55;;;;;;;8.80;7.10;;;;;;;24.63;63.23;100087.22;5026230;28;20403;-58
2023/09/22 10:37:28;;;;;;;9.23;6.45;;;;;;;24.63;63.16;100089.94;5025806;28;20061;-59
2023/09/22 10:40:19;;;;;;;9.15;6.28;;;;;;;24.64;63.24;100104.31;5028971;28;20492;-59
2023/09/22 10:42:52;;;;;;;8.13;6.55;;;;;;;24.65;62.96;100103.28;5024846;28;20050;-59
2023/09/22 10:45:23;;;;;;;10.23;6.10;;;;;;;24.65;62.88;100098.69;5026707;28;20045;-59
2023/09/22 10:47:52;;;;;;;8.52;7.22;;;;;;;24.65;62.85;100096.00;5021295;28;20053;-59
2023/09/22 10:50:32;;;;;;;7.93;6.18;;;;;;;24.65;62.83;100085.16;5026719;28;20492;-59
2023/09/22 10:53:06;;;;;;;7.57;5.72;;;;;;;24.66;62.95;100081.41;5024978;28;20053;-58
2023/09/22 10:55:36;;;;;;;9.15;6.00;;;;;;;24.67;62.93;100066.03;5028278;28;20041;-59
2023/09/22 10:58:12;;;;;;;9.50;5.95;;;;;;;24.69;62.58;100060.44;5028188;28;20068;-59
2023/09/22 11:00:53;;;;;;;9.52;6.13;;;;;;;24.67;62.70;100053.34;5024570;28;20053;-59
2023/09/22 11:03:20;;;;;;;8.10;5.88;;;;;;;24.67;62.67;100061.47;5026412;28;20056;-59
2023/09/22 11:06:08;;;;;;;8.00;5.80;;;;;;;24.67;62.46;100053.34;5028360;28;20056;-59
2023/09/22 11:08:51;;;;;;;9.90;6.65;;;;;;;24.66;62.30;100043.53;5020356;28;20050;-59
2023/09/22 11:11:19;;;;;;;11.15;7.00;;;;;;;24.66;62.67;100021.88;5019234;28;20056;-59
2023/09/22 11:14:05;;;;;;;9.93;7.18;;;;;;;24.66;62.93;100021.88;5026924;28;20076;-59
2023/09/22 11:16:32;;;;;;;10.00;6.78;;;;;;;24.66;62.54;100030.00;5019607;28;20072;-59
2023/09/22 11:19:05;;;;;;;10.73;6.78;;;;;;;24.67;62.43;100018.16;5015831;28;20049;-59
2023/09/22 11:21:39;;;;;;;8.82;5.57;;;;;;;24.67;62.86;100023.59;5027803;28;20056;-59
2023/09/22 11:24:10;;;;;;;10.63;5.93;;;;;;;24.69;63.01;100036.91;5018412;28;20061;-59
2023/09/22 11:26:41;;;;;;;8.65;5.90;;;;;;;24.70;62.87;100033.19;5017316;28;20052;-59
2023/09/22 11:29:09;;;;;;;11.98;6.10;;;;;;;24.71;62.77;100028.59;5023107;28;20048;-59
2023/09/22 11:31:49;;;;;;;10.70;6.07;;;;;;;24.71;62.58;100020.47;5026212;28;20056;-59
2023/09/22 11:34:19;;;;;;;9.13;6.28;;;;;;;24.69;63.04;100020.69;5019991;28;20496;-59
2023/09/22 11:36:48;;;;;;;9.85;6.85;;;;;;;24.68;63.16;100010.88;5004035;28;20053;-59
2023/09/22 11:39:34;;;;;;;9.65;6.18;;;;;;;24.67;62.98;100009.19;5027077;28;20403;-59
2023/09/22 11:42:02;;;;;;;9.85;7.10;;;;;;;24.66;63.50;100002.09;5022303;28;20054;-59